sensor_id;sensor_type;location;lat;lon;timestamp;P1;durP1;ratioP1;P2;durP2;ratioP2
71435;SDS011;59251;51.326;12.370;2023-04-15T00:00:53;11.63;;;5.35;;
71435;SDS011;59251;51.326;12.370;2023-04-15T00:03:19;11.90;;;5.07;;
71435;SDS011;59251;51.326;12.370;2023-04-15T00:05:44;12.93;;;6.30;;
71435;SDS011;59251;51.326;12.370;2023-04-15T00:08:10;12.30;;;5.33;;
71435;SDS011;59251;51.326;12.370;2023-04-15T00:10:35;13.17;;;5.90;;
71435;SDS011;59251;51.326;12.370;2023-04-15T00:13:00;14.32;;;6.32;;
71435;SDS011;59251;51.326;12.370;2023-04-15T00:15:26;13.07;;;5.90;;
71435;SDS011;59251;51.326;12.370;2023-04-15T00:17:52;12.73;;;5.22;;
71435;SDS011;59251;51.326;12.370;2023-04-15T00:20:17;12.67;;;6.00;;
71435;SDS011;59251;51.326;12.370;2023-04-15T00:22:43;11.80;;;5.63;;
71435;SDS011;59251;51.326;12.370;2023-04-15T00:25:08;11.98;;;5.53;;
71435;SDS011;59251;51.326;12.370;2023-04-15T00:27:34;12.13;;;5.57;;
71435;SDS011;59251;51.326;12.370;2023-04-15T00:29:59;12.37;;;5.27;;
71435;SDS011;59251;51.326;12.370;2023-04-15T00:32:24;11.00;;;4.60;;
71435;SDS011;59251;51.326;12.370;2023-04-15T00:34:50;11.23;;;4.80;;
71435;SDS011;59251;51.326;12.370;2023-04-15T00:37:15;11.83;;;4.40;;
71435;SDS011;59251;51.326;12.370;2023-04-15T00:39:41;11.23;;;4.60;;
71435;SDS011;59251;51.326;12.370;2023-04-15T00:42:06;11.60;;;5.45;;
71435;SDS011;59251;51.326;12.370;2023-04-15T00:44:32;10.93;;;4.93;;
71435;SDS011;59251;51.326;12.370;2023-04-15T00:47:00;13.27;;;6.00;;
71435;SDS011;59251;51.326;12.370;2023-04-15T00:49:26;12.98;;;5.60;;
71435;SDS011;59251;51.326;12.370;2023-04-15T00:51:53;11.82;;;5.43;;
71435;SDS011;59251;51.326;12.370;2023-04-15T00:54:18;10.90;;;4.57;;
71435;SDS011;59251;51.326;12.370;2023-04-15T00:56:43;10.57;;;4.60;;
71435;SDS011;59251;51.326;12.370;2023-04-15T00:59:09;12.50;;;5.18;;
71435;SDS011;59251;51.326;12.370;2023-04-15T01:01:35;12.47;;;5.50;;
71435;SDS011;59251;51.326;12.370;2023-04-15T01:04:01;11.52;;;4.97;;
71435;SDS011;59251;51.326;12.370;2023-04-15T01:06:27;12.97;;;5.60;;
71435;SDS011;59251;51.326;12.370;2023-04-15T01:08:53;12.18;;;5.43;;
71435;SDS011;59251;51.326;12.370;2023-04-15T01:11:19;13.45;;;6.00;;
71435;SDS011;59251;51.326;12.370;2023-04-15T01:13:46;13.30;;;6.00;;
71435;SDS011;59251;51.326;12.370;2023-04-15T01:16:11;13.07;;;5.87;;
71435;SDS011;59251;51.326;12.370;2023-04-15T01:18:38;13.02;;;5.70;;
71435;SDS011;59251;51.326;12.370;2023-04-15T01:21:04;12.30;;;5.47;;
71435;SDS011;59251;51.326;12.370;2023-04-15T01:23:30;11.77;;;5.37;;
71435;SDS011;59251;51.326;12.370;2023-04-15T01:25:56;13.38;;;5.80;;
71435;SDS011;59251;51.326;12.370;2023-04-15T01:28:23;13.20;;;5.22;;
71435;SDS011;59251;51.326;12.370;2023-04-15T01:30:49;14.63;;;6.20;;
71435;SDS011;59251;51.326;12.370;2023-04-15T01:33:15;15.27;;;6.35;;
71435;SDS011;59251;51.326;12.370;2023-04-15T01:35:40;13.70;;;5.67;;
71435;SDS011;59251;51.326;12.370;2023-04-15T01:38:08;13.10;;;5.75;;
71435;SDS011;59251;51.326;12.370;2023-04-15T01:40:35;15.55;;;6.45;;
71435;SDS011;59251;51.326;12.370;2023-04-15T01:43:01;14.17;;;5.40;;
71435;SDS011;59251;51.326;12.370;2023-04-15T01:45:27;13.48;;;5.68;;
71435;SDS011;59251;51.326;12.370;2023-04-15T01:47:53;12.38;;;5.43;;
71435;SDS011;59251;51.326;12.370;2023-04-15T01:50:19;13.20;;;5.73;;
71435;SDS011;59251;51.326;12.370;2023-04-15T01:52:44;13.47;;;5.90;;
71435;SDS011;59251;51.326;12.370;2023-04-15T01:55:11;16.45;;;6.80;;
71435;SDS011;59251;51.326;12.370;2023-04-15T01:57:36;14.18;;;6.25;;
71435;SDS011;59251;51.326;12.370;2023-04-15T02:00:02;13.33;;;5.53;;
71435;SDS011;59251;51.326;12.370;2023-04-15T02:02:27;13.57;;;5.20;;
71435;SDS011;59251;51.326;12.370;2023-04-15T02:04:53;14.20;;;5.95;;
71435;SDS011;59251;51.326;12.370;2023-04-15T02:07:18;17.10;;;7.00;;
71435;SDS011;59251;51.326;12.370;2023-04-15T02:09:44;15.17;;;6.47;;
71435;SDS011;59251;51.326;12.370;2023-04-15T02:12:10;13.57;;;5.53;;
71435;SDS011;59251;51.326;12.370;2023-04-15T02:14:36;14.02;;;5.47;;
71435;SDS011;59251;51.326;12.370;2023-04-15T02:17:01;13.63;;;5.70;;
71435;SDS011;59251;51.326;12.370;2023-04-15T02:19:31;9.40;;;3.93;;
71435;SDS011;59251;51.326;12.370;2023-04-15T02:21:57;10.88;;;4.03;;
71435;SDS011;59251;51.326;12.370;2023-04-15T02:24:24;11.50;;;4.60;;
71435;SDS011;59251;51.326;12.370;2023-04-15T02:26:50;13.43;;;5.20;;
71435;SDS011;59251;51.326;12.370;2023-04-15T02:29:16;13.20;;;5.23;;
71435;SDS011;59251;51.326;12.370;2023-04-15T02:31:41;11.33;;;4.33;;
71435;SDS011;59251;51.326;12.370;2023-04-15T02:34:07;12.52;;;4.45;;
71435;SDS011;59251;51.326;12.370;2023-04-15T02:36:33;15.67;;;5.37;;
71435;SDS011;59251;51.326;12.370;2023-04-15T02:38:58;12.90;;;4.60;;
71435;SDS011;59251;51.326;12.370;2023-04-15T02:41:24;14.30;;;5.40;;
71435;SDS011;59251;51.326;12.370;2023-04-15T02:43:52;12.40;;;4.75;;
71435;SDS011;59251;51.326;12.370;2023-04-15T02:46:18;16.05;;;5.47;;
71435;SDS011;59251;51.326;12.370;2023-04-15T02:48:43;14.43;;;5.28;;
71435;SDS011;59251;51.326;12.370;2023-04-15T02:51:12;12.23;;;4.63;;
71435;SDS011;59251;51.326;12.370;2023-04-15T02:53:43;13.40;;;4.90;;
71435;SDS011;59251;51.326;12.370;2023-04-15T02:56:08;10.95;;;4.22;;
71435;SDS011;59251;51.326;12.370;2023-04-15T02:58:35;12.87;;;5.13;;
71435;SDS011;59251;51.326;12.370;2023-04-15T03:01:00;12.52;;;4.45;;
71435;SDS011;59251;51.326;12.370;2023-04-15T03:03:26;14.27;;;5.40;;
71435;SDS011;59251;51.326;12.370;2023-04-15T03:05:54;13.98;;;5.70;;
71435;SDS011;59251;51.326;12.370;2023-04-15T03:08:20;13.57;;;5.13;;
71435;SDS011;59251;51.326;12.370;2023-04-15T03:10:45;13.32;;;4.75;;
71435;SDS011;59251;51.326;12.370;2023-04-15T03:13:11;12.10;;;5.05;;
71435;SDS011;59251;51.326;12.370;2023-04-15T03:15:36;16.07;;;6.37;;
71435;SDS011;59251;51.326;12.370;2023-04-15T03:18:02;14.90;;;6.25;;
71435;SDS011;59251;51.326;12.370;2023-04-15T03:20:27;18.02;;;7.03;;
71435;SDS011;59251;51.326;12.370;2023-04-15T03:22:53;15.00;;;6.30;;
71435;SDS011;59251;51.326;12.370;2023-04-15T03:25:18;16.60;;;6.43;;
71435;SDS011;59251;51.326;12.370;2023-04-15T03:27:44;19.77;;;7.18;;
71435;SDS011;59251;51.326;12.370;2023-04-15T03:30:10;20.07;;;7.30;;
71435;SDS011;59251;51.326;12.370;2023-04-15T03:32:36;18.27;;;6.60;;
71435;SDS011;59251;51.326;12.370;2023-04-15T03:35:01;18.10;;;7.23;;
71435;SDS011;59251;51.326;12.370;2023-04-15T03:37:27;19.20;;;7.85;;
71435;SDS011;59251;51.326;12.370;2023-04-15T03:39:52;17.17;;;6.70;;
71435;SDS011;59251;51.326;12.370;2023-04-15T03:42:17;16.50;;;6.90;;
71435;SDS011;59251;51.326;12.370;2023-04-15T03:44:43;18.23;;;7.30;;
71435;SDS011;59251;51.326;12.370;2023-04-15T03:47:08;18.47;;;6.57;;
71435;SDS011;59251;51.326;12.370;2023-04-15T03:49:34;16.80;;;6.47;;
71435;SDS011;59251;51.326;12.370;2023-04-15T03:52:00;13.90;;;5.20;;
71435;SDS011;59251;51.326;12.370;2023-04-15T03:54:25;14.27;;;5.57;;
71435;SDS011;59251;51.326;12.370;2023-04-15T03:56:50;14.33;;;5.67;;
71435;SDS011;59251;51.326;12.370;2023-04-15T03:59:16;14.52;;;5.35;;
71435;SDS011;59251;51.326;12.370;2023-04-15T04:01:42;12.63;;;4.80;;
71435;SDS011;59251;51.326;12.370;2023-04-15T04:04:07;12.43;;;4.77;;
71435;SDS011;59251;51.326;12.370;2023-04-15T04:06:33;12.57;;;4.80;;
71435;SDS011;59251;51.326;12.370;2023-04-15T04:08:58;11.97;;;4.30;;
71435;SDS011;59251;51.326;12.370;2023-04-15T04:11:23;13.43;;;4.90;;
71435;SDS011;59251;51.326;12.370;2023-04-15T04:13:49;12.93;;;4.40;;
71435;SDS011;59251;51.326;12.370;2023-04-15T04:16:14;12.15;;;4.13;;
71435;SDS011;59251;51.326;12.370;2023-04-15T04:18:40;11.57;;;4.22;;
71435;SDS011;59251;51.326;12.370;2023-04-15T04:21:05;11.83;;;4.20;;
71435;SDS011;59251;51.326;12.370;2023-04-15T04:23:31;11.23;;;3.55;;
71435;SDS011;59251;51.326;12.370;2023-04-15T04:25:57;11.30;;;4.00;;
71435;SDS011;59251;51.326;12.370;2023-04-15T04:28:22;11.63;;;4.00;;
71435;SDS011;59251;51.326;12.370;2023-04-15T04:30:48;11.50;;;4.22;;
71435;SDS011;59251;51.326;12.370;2023-04-15T04:33:14;12.40;;;4.63;;
71435;SDS011;59251;51.326;12.370;2023-04-15T04:35:39;10.80;;;3.90;;
71435;SDS011;59251;51.326;12.370;2023-04-15T04:38:05;11.82;;;4.40;;
71435;SDS011;59251;51.326;12.370;2023-04-15T04:40:30;10.20;;;3.60;;
71435;SDS011;59251;51.326;12.370;2023-04-15T04:42:56;8.77;;;3.30;;
71435;SDS011;59251;51.326;12.370;2023-04-15T04:45:21;11.37;;;3.83;;
71435;SDS011;59251;51.326;12.370;2023-04-15T04:47:46;12.33;;;4.43;;
71435;SDS011;59251;51.326;12.370;2023-04-15T04:50:12;11.63;;;4.60;;
71435;SDS011;59251;51.326;12.370;2023-04-15T04:52:37;14.07;;;4.95;;
71435;SDS011;59251;51.326;12.370;2023-04-15T04:55:03;12.20;;;4.63;;
71435;SDS011;59251;51.326;12.370;2023-04-15T04:57:29;12.23;;;4.40;;
71435;SDS011;59251;51.326;12.370;2023-04-15T04:59:54;8.73;;;3.23;;
71435;SDS011;59251;51.326;12.370;2023-04-15T05:02:20;10.43;;;3.72;;
71435;SDS011;59251;51.326;12.370;2023-04-15T05:04:45;13.57;;;4.30;;
71435;SDS011;59251;51.326;12.370;2023-04-15T05:07:11;9.97;;;3.53;;
71435;SDS011;59251;51.326;12.370;2023-04-15T05:09:36;13.20;;;4.87;;
71435;SDS011;59251;51.326;12.370;2023-04-15T05:12:05;11.20;;;4.17;;
71435;SDS011;59251;51.326;12.370;2023-04-15T05:14:31;9.68;;;3.35;;
71435;SDS011;59251;51.326;12.370;2023-04-15T05:16:57;11.60;;;4.00;;
71435;SDS011;59251;51.326;12.370;2023-04-15T05:19:22;11.60;;;4.40;;
71435;SDS011;59251;51.326;12.370;2023-04-15T05:21:48;13.63;;;5.10;;
71435;SDS011;59251;51.326;12.370;2023-04-15T05:24:13;12.70;;;4.57;;
71435;SDS011;59251;51.326;12.370;2023-04-15T05:26:38;11.13;;;4.17;;
71435;SDS011;59251;51.326;12.370;2023-04-15T05:29:04;11.30;;;4.40;;
71435;SDS011;59251;51.326;12.370;2023-04-15T05:31:29;11.33;;;4.10;;
71435;SDS011;59251;51.326;12.370;2023-04-15T05:33:55;11.60;;;4.13;;
71435;SDS011;59251;51.326;12.370;2023-04-15T05:36:20;11.77;;;4.70;;
71435;SDS011;59251;51.326;12.370;2023-04-15T05:38:46;11.23;;;4.57;;
71435;SDS011;59251;51.326;12.370;2023-04-15T05:41:11;12.50;;;4.93;;
71435;SDS011;59251;51.326;12.370;2023-04-15T05:43:36;13.32;;;4.97;;
71435;SDS011;59251;51.326;12.370;2023-04-15T05:46:02;9.70;;;3.55;;
71435;SDS011;59251;51.326;12.370;2023-04-15T05:48:27;12.33;;;4.43;;
71435;SDS011;59251;51.326;12.370;2023-04-15T05:50:52;11.53;;;4.57;;
71435;SDS011;59251;51.326;12.370;2023-04-15T05:53:18;13.07;;;5.20;;
71435;SDS011;59251;51.326;12.370;2023-04-15T05:55:44;11.88;;;4.70;;
71435;SDS011;59251;51.326;12.370;2023-04-15T05:58:10;13.10;;;5.37;;
71435;SDS011;59251;51.326;12.370;2023-04-15T06:00:35;12.80;;;5.20;;
71435;SDS011;59251;51.326;12.370;2023-04-15T06:03:00;14.23;;;5.07;;
71435;SDS011;59251;51.326;12.370;2023-04-15T06:05:26;13.13;;;5.57;;
71435;SDS011;59251;51.326;12.370;2023-04-15T06:07:51;13.30;;;5.30;;
71435;SDS011;59251;51.326;12.370;2023-04-15T06:10:17;15.33;;;5.37;;
71435;SDS011;59251;51.326;12.370;2023-04-15T06:12:42;11.77;;;4.73;;
71435;SDS011;59251;51.326;12.370;2023-04-15T06:15:07;13.68;;;5.43;;
71435;SDS011;59251;51.326;12.370;2023-04-15T06:17:36;13.95;;;5.65;;
71435;SDS011;59251;51.326;12.370;2023-04-15T06:20:02;12.52;;;5.32;;
71435;SDS011;59251;51.326;12.370;2023-04-15T06:22:28;13.13;;;5.60;;
71435;SDS011;59251;51.326;12.370;2023-04-15T06:24:53;13.15;;;5.55;;
71435;SDS011;59251;51.326;12.370;2023-04-15T06:27:19;12.48;;;5.30;;
71435;SDS011;59251;51.326;12.370;2023-04-15T06:29:44;12.20;;;5.20;;
71435;SDS011;59251;51.326;12.370;2023-04-15T06:32:10;13.93;;;5.40;;
71435;SDS011;59251;51.326;12.370;2023-04-15T06:34:36;11.33;;;4.73;;
71435;SDS011;59251;51.326;12.370;2023-04-15T06:37:01;13.93;;;5.72;;
71435;SDS011;59251;51.326;12.370;2023-04-15T06:39:27;14.00;;;5.60;;
71435;SDS011;59251;51.326;12.370;2023-04-15T06:41:52;12.37;;;5.10;;
71435;SDS011;59251;51.326;12.370;2023-04-15T06:44:18;12.90;;;5.33;;
71435;SDS011;59251;51.326;12.370;2023-04-15T06:46:43;12.50;;;5.27;;
71435;SDS011;59251;51.326;12.370;2023-04-15T06:49:09;12.02;;;5.30;;
71435;SDS011;59251;51.326;12.370;2023-04-15T06:51:35;12.50;;;5.33;;
71435;SDS011;59251;51.326;12.370;2023-04-15T06:54:01;13.75;;;5.95;;
71435;SDS011;59251;51.326;12.370;2023-04-15T06:56:29;12.50;;;5.60;;
71435;SDS011;59251;51.326;12.370;2023-04-15T06:58:55;13.52;;;6.10;;
71435;SDS011;59251;51.326;12.370;2023-04-15T07:01:21;13.50;;;6.10;;
71435;SDS011;59251;51.326;12.370;2023-04-15T07:03:46;13.33;;;6.27;;
71435;SDS011;59251;51.326;12.370;2023-04-15T07:06:12;14.70;;;5.73;;
71435;SDS011;59251;51.326;12.370;2023-04-15T07:08:37;14.67;;;6.63;;
71435;SDS011;59251;51.326;12.370;2023-04-15T07:11:03;13.80;;;5.75;;
71435;SDS011;59251;51.326;12.370;2023-04-15T07:13:29;13.30;;;6.43;;
71435;SDS011;59251;51.326;12.370;2023-04-15T07:15:55;15.50;;;6.72;;
71435;SDS011;59251;51.326;12.370;2023-04-15T07:18:21;15.80;;;6.63;;
71435;SDS011;59251;51.326;12.370;2023-04-15T07:20:46;15.13;;;5.70;;
71435;SDS011;59251;51.326;12.370;2023-04-15T07:23:12;13.30;;;5.73;;
71435;SDS011;59251;51.326;12.370;2023-04-15T07:25:37;14.55;;;5.75;;
71435;SDS011;59251;51.326;12.370;2023-04-15T07:28:02;12.90;;;5.43;;
71435;SDS011;59251;51.326;12.370;2023-04-15T07:30:28;14.53;;;6.30;;
71435;SDS011;59251;51.326;12.370;2023-04-15T07:32:53;15.37;;;6.17;;
71435;SDS011;59251;51.326;12.370;2023-04-15T07:35:19;14.27;;;6.47;;
71435;SDS011;59251;51.326;12.370;2023-04-15T07:37:45;14.25;;;5.93;;
71435;SDS011;59251;51.326;12.370;2023-04-15T07:40:11;13.50;;;5.88;;
71435;SDS011;59251;51.326;12.370;2023-04-15T07:42:38;14.73;;;6.15;;
71435;SDS011;59251;51.326;12.370;2023-04-15T07:45:04;13.87;;;5.97;;
71435;SDS011;59251;51.326;12.370;2023-04-15T07:47:29;13.10;;;5.43;;
71435;SDS011;59251;51.326;12.370;2023-04-15T07:49:55;13.23;;;6.00;;
71435;SDS011;59251;51.326;12.370;2023-04-15T07:52:20;26.93;;;6.93;;
71435;SDS011;59251;51.326;12.370;2023-04-15T07:54:46;13.33;;;5.33;;
71435;SDS011;59251;51.326;12.370;2023-04-15T07:57:11;14.83;;;5.80;;
71435;SDS011;59251;51.326;12.370;2023-04-15T07:59:36;17.23;;;5.88;;
71435;SDS011;59251;51.326;12.370;2023-04-15T08:02:02;13.83;;;5.67;;
71435;SDS011;59251;51.326;12.370;2023-04-15T08:04:28;12.87;;;5.40;;
71435;SDS011;59251;51.326;12.370;2023-04-15T08:06:53;15.90;;;6.43;;
71435;SDS011;59251;51.326;12.370;2023-04-15T08:09:19;14.95;;;6.43;;
71435;SDS011;59251;51.326;12.370;2023-04-15T08:11:47;15.87;;;6.13;;
71435;SDS011;59251;51.326;12.370;2023-04-15T08:14:13;15.13;;;6.88;;
71435;SDS011;59251;51.326;12.370;2023-04-15T08:16:38;16.63;;;6.70;;
71435;SDS011;59251;51.326;12.370;2023-04-15T08:19:04;14.85;;;6.20;;
71435;SDS011;59251;51.326;12.370;2023-04-15T08:21:30;19.73;;;6.37;;
71435;SDS011;59251;51.326;12.370;2023-04-15T08:23:55;17.07;;;6.80;;
71435;SDS011;59251;51.326;12.370;2023-04-15T08:26:21;15.85;;;5.78;;
71435;SDS011;59251;51.326;12.370;2023-04-15T08:28:47;16.47;;;7.23;;
71435;SDS011;59251;51.326;12.370;2023-04-15T08:31:13;15.88;;;6.95;;
71435;SDS011;59251;51.326;12.370;2023-04-15T08:33:40;15.68;;;7.22;;
71435;SDS011;59251;51.326;12.370;2023-04-15T08:36:06;14.88;;;6.65;;
71435;SDS011;59251;51.326;12.370;2023-04-15T08:38:32;13.77;;;6.40;;
71435;SDS011;59251;51.326;12.370;2023-04-15T08:40:59;15.07;;;6.37;;
71435;SDS011;59251;51.326;12.370;2023-04-15T08:43:36;15.75;;;6.40;;
71435;SDS011;59251;51.326;12.370;2023-04-15T08:46:07;16.17;;;7.07;;
71435;SDS011;59251;51.326;12.370;2023-04-15T08:48:34;16.75;;;7.03;;
71435;SDS011;59251;51.326;12.370;2023-04-15T08:51:02;15.53;;;7.00;;
71435;SDS011;59251;51.326;12.370;2023-04-15T08:53:28;15.65;;;6.95;;
71435;SDS011;59251;51.326;12.370;2023-04-15T08:55:54;17.98;;;7.43;;
71435;SDS011;59251;51.326;12.370;2023-04-15T08:58:21;19.13;;;7.93;;
71435;SDS011;59251;51.326;12.370;2023-04-15T09:00:48;18.98;;;8.27;;
71435;SDS011;59251;51.326;12.370;2023-04-15T09:03:13;18.03;;;7.70;;
71435;SDS011;59251;51.326;12.370;2023-04-15T09:05:41;17.92;;;8.38;;
71435;SDS011;59251;51.326;12.370;2023-04-15T09:08:07;16.13;;;7.93;;
71435;SDS011;59251;51.326;12.370;2023-04-15T09:10:32;17.75;;;7.97;;
71435;SDS011;59251;51.326;12.370;2023-04-15T09:12:58;18.40;;;8.00;;
71435;SDS011;59251;51.326;12.370;2023-04-15T09:15:23;18.40;;;8.90;;
71435;SDS011;59251;51.326;12.370;2023-04-15T09:17:49;23.25;;;9.13;;
71435;SDS011;59251;51.326;12.370;2023-04-15T09:20:15;18.53;;;9.20;;
71435;SDS011;59251;51.326;12.370;2023-04-15T09:22:44;22.13;;;10.13;;
71435;SDS011;59251;51.326;12.370;2023-04-15T09:30:14;22.33;;;10.23;;
71435;SDS011;59251;51.326;12.370;2023-04-15T09:35:19;21.73;;;10.02;;
71435;SDS011;59251;51.326;12.370;2023-04-15T09:37:46;24.35;;;10.25;;
71435;SDS011;59251;51.326;12.370;2023-04-15T09:40:11;23.93;;;10.57;;
71435;SDS011;59251;51.326;12.370;2023-04-15T09:42:54;23.33;;;10.90;;
71435;SDS011;59251;51.326;12.370;2023-04-15T09:45:20;23.25;;;10.65;;
71435;SDS011;59251;51.326;12.370;2023-04-15T09:47:46;22.98;;;10.70;;
71435;SDS011;59251;51.326;12.370;2023-04-15T09:50:12;25.53;;;11.40;;
71435;SDS011;59251;51.326;12.370;2023-04-15T09:52:42;24.98;;;12.23;;
71435;SDS011;59251;51.326;12.370;2023-04-15T09:55:08;22.93;;;10.97;;
71435;SDS011;59251;51.326;12.370;2023-04-15T09:57:35;25.23;;;10.60;;
71435;SDS011;59251;51.326;12.370;2023-04-15T10:00:04;23.35;;;10.88;;
71435;SDS011;59251;51.326;12.370;2023-04-15T10:02:30;25.60;;;11.40;;
71435;SDS011;59251;51.326;12.370;2023-04-15T10:04:56;21.50;;;11.27;;
71435;SDS011;59251;51.326;12.370;2023-04-15T10:07:22;23.50;;;11.13;;
71435;SDS011;59251;51.326;12.370;2023-04-15T10:09:49;22.13;;;11.00;;
71435;SDS011;59251;51.326;12.370;2023-04-15T10:12:18;26.87;;;12.60;;
71435;SDS011;59251;51.326;12.370;2023-04-15T10:14:44;26.73;;;12.85;;
71435;SDS011;59251;51.326;12.370;2023-04-15T10:17:16;25.30;;;12.98;;
71435;SDS011;59251;51.326;12.370;2023-04-15T10:19:45;27.80;;;14.00;;
71435;SDS011;59251;51.326;12.370;2023-04-15T10:22:12;26.88;;;12.93;;
71435;SDS011;59251;51.326;12.370;2023-04-15T10:24:38;29.70;;;14.30;;
71435;SDS011;59251;51.326;12.370;2023-04-15T10:27:04;30.42;;;14.05;;
71435;SDS011;59251;51.326;12.370;2023-04-15T10:29:30;28.90;;;13.93;;
71435;SDS011;59251;51.326;12.370;2023-04-15T10:31:55;38.17;;;14.73;;
71435;SDS011;59251;51.326;12.370;2023-04-15T10:34:23;28.60;;;13.70;;
71435;SDS011;59251;51.326;12.370;2023-04-15T10:36:49;30.73;;;15.23;;
71435;SDS011;59251;51.326;12.370;2023-04-15T10:44:42;31.97;;;14.70;;
71435;SDS011;59251;51.326;12.370;2023-04-15T10:47:18;28.92;;;13.52;;
71435;SDS011;59251;51.326;12.370;2023-04-15T10:52:24;31.10;;;15.20;;
71435;SDS011;59251;51.326;12.370;2023-04-15T10:55:51;35.55;;;15.70;;
71435;SDS011;59251;51.326;12.370;2023-04-15T10:57:50;29.43;;;15.37;;
71435;SDS011;59251;51.326;12.370;2023-04-15T11:00:27;31.65;;;15.27;;
71435;SDS011;59251;51.326;12.370;2023-04-15T11:08:10;29.05;;;15.00;;
71435;SDS011;59251;51.326;12.370;2023-04-15T11:13:02;29.20;;;14.95;;
71435;SDS011;59251;51.326;12.370;2023-04-15T11:15:30;30.33;;;15.40;;
71435;SDS011;59251;51.326;12.370;2023-04-15T11:17:58;26.30;;;14.55;;
71435;SDS011;59251;51.326;12.370;2023-04-15T11:20:32;28.67;;;14.73;;
71435;SDS011;59251;51.326;12.370;2023-04-15T11:22:58;29.20;;;14.97;;
71435;SDS011;59251;51.326;12.370;2023-04-15T11:25:24;29.05;;;14.80;;
71435;SDS011;59251;51.326;12.370;2023-04-15T11:27:52;24.83;;;14.52;;
71435;SDS011;59251;51.326;12.370;2023-04-15T11:30:19;27.42;;;13.77;;
71435;SDS011;59251;51.326;12.370;2023-04-15T11:32:49;25.50;;;13.52;;
71435;SDS011;59251;51.326;12.370;2023-04-15T11:35:16;26.20;;;14.02;;
71435;SDS011;59251;51.326;12.370;2023-04-15T11:37:42;26.48;;;13.38;;
71435;SDS011;59251;51.326;12.370;2023-04-15T11:40:08;27.90;;;15.17;;
71435;SDS011;59251;51.326;12.370;2023-04-15T11:42:34;27.17;;;13.63;;
71435;SDS011;59251;51.326;12.370;2023-04-15T11:47:38;25.98;;;12.82;;
71435;SDS011;59251;51.326;12.370;2023-04-15T11:52:52;25.30;;;12.38;;
71435;SDS011;59251;51.326;12.370;2023-04-15T11:55:22;24.65;;;13.63;;
71435;SDS011;59251;51.326;12.370;2023-04-15T11:57:49;25.40;;;12.65;;
71435;SDS011;59251;51.326;12.370;2023-04-15T12:00:33;24.13;;;12.55;;
71435;SDS011;59251;51.326;12.370;2023-04-15T12:06:03;18.08;;;10.52;;
71435;SDS011;59251;51.326;12.370;2023-04-15T12:09:12;22.05;;;11.77;;
71435;SDS011;59251;51.326;12.370;2023-04-15T12:13:52;18.97;;;10.50;;
71435;SDS011;59251;51.326;12.370;2023-04-15T12:16:18;21.45;;;11.65;;
71435;SDS011;59251;51.326;12.370;2023-04-15T12:18:44;17.23;;;9.93;;
71435;SDS011;59251;51.326;12.370;2023-04-15T12:21:11;18.70;;;9.10;;
71435;SDS011;59251;51.326;12.370;2023-04-15T12:23:37;17.75;;;9.57;;
71435;SDS011;59251;51.326;12.370;2023-04-15T12:26:06;17.07;;;9.30;;
71435;SDS011;59251;51.326;12.370;2023-04-15T12:28:35;17.00;;;9.05;;
71435;SDS011;59251;51.326;12.370;2023-04-15T12:31:05;14.00;;;7.63;;
71435;SDS011;59251;51.326;12.370;2023-04-15T12:33:35;15.63;;;8.65;;
71435;SDS011;59251;51.326;12.370;2023-04-15T12:36:01;14.27;;;8.23;;
71435;SDS011;59251;51.326;12.370;2023-04-15T12:38:27;13.60;;;7.93;;
71435;SDS011;59251;51.326;12.370;2023-04-15T12:40:52;14.48;;;8.23;;
71435;SDS011;59251;51.326;12.370;2023-04-15T12:43:18;16.77;;;7.43;;
71435;SDS011;59251;51.326;12.370;2023-04-15T12:45:43;12.77;;;7.07;;
71435;SDS011;59251;51.326;12.370;2023-04-15T12:48:08;13.33;;;6.90;;
71435;SDS011;59251;51.326;12.370;2023-04-15T12:50:34;12.35;;;6.50;;
71435;SDS011;59251;51.326;12.370;2023-04-15T12:52:59;15.05;;;6.50;;
71435;SDS011;59251;51.326;12.370;2023-04-15T12:55:25;13.23;;;7.77;;
71435;SDS011;59251;51.326;12.370;2023-04-15T12:57:51;12.63;;;5.97;;
71435;SDS011;59251;51.326;12.370;2023-04-15T13:00:16;11.57;;;6.25;;
71435;SDS011;59251;51.326;12.370;2023-04-15T13:02:42;13.97;;;7.07;;
71435;SDS011;59251;51.326;12.370;2023-04-15T13:05:08;11.95;;;6.30;;
71435;SDS011;59251;51.326;12.370;2023-04-15T13:07:33;10.17;;;5.83;;
71435;SDS011;59251;51.326;12.370;2023-04-15T13:09:59;11.32;;;6.13;;
71435;SDS011;59251;51.326;12.370;2023-04-15T13:12:25;12.87;;;6.30;;
71435;SDS011;59251;51.326;12.370;2023-04-15T13:14:51;9.55;;;5.18;;
71435;SDS011;59251;51.326;12.370;2023-04-15T13:17:17;10.10;;;5.28;;
71435;SDS011;59251;51.326;12.370;2023-04-15T13:19:44;11.20;;;6.05;;
71435;SDS011;59251;51.326;12.370;2023-04-15T13:22:10;11.47;;;5.97;;
71435;SDS011;59251;51.326;12.370;2023-04-15T13:24:36;10.23;;;5.15;;
71435;SDS011;59251;51.326;12.370;2023-04-15T13:27:03;10.98;;;5.43;;
71435;SDS011;59251;51.326;12.370;2023-04-15T13:29:28;9.43;;;5.00;;
71435;SDS011;59251;51.326;12.370;2023-04-15T13:31:54;9.02;;;4.22;;
71435;SDS011;59251;51.326;12.370;2023-04-15T13:34:20;9.90;;;4.20;;
71435;SDS011;59251;51.326;12.370;2023-04-15T13:36:45;10.50;;;5.20;;
71435;SDS011;59251;51.326;12.370;2023-04-15T13:39:11;9.10;;;4.38;;
71435;SDS011;59251;51.326;12.370;2023-04-15T13:41:36;8.27;;;4.53;;
71435;SDS011;59251;51.326;12.370;2023-04-15T13:44:02;8.45;;;4.63;;
71435;SDS011;59251;51.326;12.370;2023-04-15T13:46:27;9.87;;;4.50;;
71435;SDS011;59251;51.326;12.370;2023-04-15T13:48:52;12.13;;;6.10;;
71435;SDS011;59251;51.326;12.370;2023-04-15T13:51:18;11.33;;;4.93;;
71435;SDS011;59251;51.326;12.370;2023-04-15T13:53:43;10.93;;;5.23;;
71435;SDS011;59251;51.326;12.370;2023-04-15T13:56:09;10.50;;;5.47;;
71435;SDS011;59251;51.326;12.370;2023-04-15T13:58:35;11.93;;;5.10;;
71435;SDS011;59251;51.326;12.370;2023-04-15T14:01:01;9.80;;;4.78;;
71435;SDS011;59251;51.326;12.370;2023-04-15T14:03:27;9.97;;;5.20;;
71435;SDS011;59251;51.326;12.370;2023-04-15T14:05:52;10.27;;;5.18;;
71435;SDS011;59251;51.326;12.370;2023-04-15T14:08:20;10.27;;;4.40;;
71435;SDS011;59251;51.326;12.370;2023-04-15T14:10:46;9.27;;;4.65;;
71435;SDS011;59251;51.326;12.370;2023-04-15T14:13:13;9.05;;;4.63;;
71435;SDS011;59251;51.326;12.370;2023-04-15T14:15:39;9.43;;;4.83;;
71435;SDS011;59251;51.326;12.370;2023-04-15T14:18:05;9.93;;;5.18;;
71435;SDS011;59251;51.326;12.370;2023-04-15T14:20:30;9.75;;;4.53;;
71435;SDS011;59251;51.326;12.370;2023-04-15T14:22:56;9.95;;;5.22;;
71435;SDS011;59251;51.326;12.370;2023-04-15T14:25:21;11.37;;;5.50;;
71435;SDS011;59251;51.326;12.370;2023-04-15T14:27:47;9.37;;;5.20;;
71435;SDS011;59251;51.326;12.370;2023-04-15T14:30:12;9.80;;;5.20;;
71435;SDS011;59251;51.326;12.370;2023-04-15T14:32:38;11.03;;;5.73;;
71435;SDS011;59251;51.326;12.370;2023-04-15T14:35:03;10.50;;;5.47;;
71435;SDS011;59251;51.326;12.370;2023-04-15T14:37:29;9.15;;;4.47;;
71435;SDS011;59251;51.326;12.370;2023-04-15T14:39:54;9.23;;;4.93;;
71435;SDS011;59251;51.326;12.370;2023-04-15T14:42:20;10.50;;;4.87;;
71435;SDS011;59251;51.326;12.370;2023-04-15T14:44:45;9.15;;;4.75;;
71435;SDS011;59251;51.326;12.370;2023-04-15T14:47:11;9.63;;;4.38;;
71435;SDS011;59251;51.326;12.370;2023-04-15T14:49:37;14.47;;;4.60;;